Time;durP1;ratioP1;P1;durP2;ratioP2;P2;SDS_P1;SDS_P2;PMS_P1;PMS_P2;Temp;Humidity;BMP_temperature;BMP_pressure;BME280_temperature;BME280_humidity;BME280_pressure;Samples;Min_cycle;Max_cycle;Signal;HPM_P1;HPM_P2
2023/05/17 00:01:24;;;;;;;;;;;;;;;9.02;100.00;102412.28;5059405;28;19913;-74
2023/05/17 00:03:52;;;;;;;;;;;;;;;9.01;100.00;102418.56;5056576;28;19913;-75
2023/05/17 00:06:18;;;;;;;;;;;;;;;8.99;100.00;102424.91;5054607;28;19966;-75
2023/05/17 00:08:43;;;;;;;;;;;;;;;8.96;100.00;102422.44;5053713;28;19955;-74
2023/05/17 00:11:08;;;;;;;;;;;;;;;8.94;100.00;102425.22;5053419;28;19916;-74
2023/05/17 00:13:33;;;;;;;;;;;;;;;8.92;100.00;102424.44;5053631;28;19923;-74
2023/05/17 00:15:58;;;;;;;;;;;;;;;8.88;100.00;102423.75;5062371;28;19923;-74
2023/05/17 00:18:24;;;;;;;;;;;;;;;8.86;100.00;102428.31;5053974;28;20476;-74
2023/05/17 00:20:49;;;;;;;;;;;;;;;8.82;100.00;102424.16;5054543;28;19999;-74
2023/05/17 00:23:14;;;;;;;;;;;;;;;8.80;100.00;102431.38;5057017;28;20366;-74
2023/05/17 00:25:39;;;;;;;;;;;;;;;8.79;100.00;102426.13;5051565;28;19919;-74
2023/05/17 00:28:05;;;;;;;;;;;;;;;8.76;100.00;102419.19;5055772;28;20393;-75
2023/05/17 00:30:30;;;;;;;;;;;;;;;8.76;100.00;102421.00;5056243;28;19909;-75
2023/05/17 00:32:55;;;;;;;;;;;;;;;8.71;100.00;102421.25;5055960;28;20372;-74
2023/05/17 00:35:20;;;;;;;;;;;;;;;8.71;100.00;102431.91;5054852;28;20003;-75
2023/05/17 00:37:46;;;;;;;;;;;;;;;8.69;100.00;102424.00;5055183;28;19913;-75
2023/05/17 00:40:12;;;;;;;;;;;;;;;8.67;100.00;102425.06;5059338;28;19915;-75
2023/05/17 00:42:37;;;;;;;;;;;;;;;8.66;100.00;102420.66;5055819;28;19994;-74
2023/05/17 00:45:03;;;;;;;;;;;;;;;8.65;100.00;102425.16;5060318;28;19916;-74
2023/05/17 00:47:28;;;;;;;;;;;;;;;8.62;100.00;102414.69;5054796;28;19999;-75
2023/05/17 00:49:53;;;;;;;;;;;;;;;8.60;100.00;102419.25;5055775;28;20366;-74
2023/05/17 00:52:19;;;;;;;;;;;;;;;8.57;100.00;102415.91;5053677;28;19920;-75
2023/05/17 00:54:45;;;;;;;;;;;;;;;8.56;100.00;102417.72;5055856;28;19912;-75
2023/05/17 00:57:10;;;;;;;;;;;;;;;8.54;100.00;102414.31;5060177;28;20427;-74
2023/05/17 00:59:36;;;;;;;;;;;;;;;8.52;100.00;102422.38;5056228;28;19913;-74
2023/05/17 01:02:02;;;;;;;;;;;;;;;8.50;100.00;102426.91;5054172;28;19953;-74
2023/05/17 01:04:28;;;;;;;;;;;;;;;8.46;100.00;102421.88;5051616;28;19912;-74
2023/05/17 01:06:53;;;;;;;;;;;;;;;8.44;100.00;102421.94;5054578;28;20137;-74
2023/05/17 01:09:19;;;;;;;;;;;;;;;8.41;100.00;102415.94;5052833;28;19916;-74
2023/05/17 01:11:59;;;;;;;;;;;;;;;8.39;100.00;102412.50;5056559;28;19970;-75
2023/05/17 01:14:43;;;;;;;;;;;;;;;8.37;100.00;102428.53;5052701;28;20046;-74
2023/05/17 01:17:24;;;;;;;;;;;;;;;8.35;100.00;102430.44;5052613;28;19916;-74
2023/05/17 01:19:49;;;;;;;;;;;;;;;8.31;100.00;102424.44;5056229;28;19913;-75
2023/05/17 01:22:41;;;;;;;;;;;;;;;8.27;100.00;102417.56;5057298;28;19935;-74
2023/05/17 01:25:12;;;;;;;;;;;;;;;8.25;100.00;102416.81;5049336;28;19909;-75
2023/05/17 01:27:39;;;;;;;;;;;;;;;8.24;100.00;102414.22;5055207;28;19912;-74
2023/05/17 01:30:05;;;;;;;;;;;;;;;8.21;100.00;102415.28;5052864;28;19919;-75
2023/05/17 01:32:32;;;;;;;;;;;;;;;8.21;100.00;102425.06;5051819;28;19985;-74
2023/05/17 01:34:57;;;;;;;;;;;;;;;8.20;100.00;102431.31;5053583;28;20405;-75
2023/05/17 01:37:22;;;;;;;;;;;;;;;8.17;100.00;102434.16;5053577;28;19959;-74
2023/05/17 01:39:48;;;;;;;;;;;;;;;8.12;100.00;102427.31;5060321;28;19948;-74
2023/05/17 01:42:18;;;;;;;;;;;;;;;8.09;100.00;102427.47;5056512;28;20113;-74
2023/05/17 01:44:52;;;;;;;;;;;;;;;8.08;100.00;102416.91;5062263;28;19927;-74
2023/05/17 01:47:17;;;;;;;;;;;;;;;8.06;100.00;102411.69;5056859;28;19923;-74
2023/05/17 01:49:45;;;;;;;;;;;;;;;8.04;100.00;102418.91;5059162;28;19920;-74
2023/05/17 01:52:17;;;;;;;;;;;;;;;8.03;100.00;102411.88;5056313;28;19920;-74
2023/05/17 01:54:46;;;;;;;;;;;;;;;8.01;100.00;102416.44;5058074;28;19916;-74
2023/05/17 01:57:13;;;;;;;;;;;;;;;8.00;100.00;102421.84;5057702;28;19953;-74
2023/05/17 01:59:39;;;;;;;;;;;;;;;7.98;100.00;102415.72;5055565;28;19948;-74
2023/05/17 02:02:07;;;;;;;;;;;;;;;7.97;100.00;102417.53;5056196;28;19908;-74
2023/05/17 02:04:33;;;;;;;;;;;;;;;7.96;100.00;102418.50;5056011;28;19913;-74
2023/05/17 02:06:58;;;;;;;;;;;;;;;7.95;100.00;102414.13;5054917;28;19913;-74
2023/05/17 02:09:23;;;;;;;;;;;;;;;7.92;100.00;102417.81;5056339;28;19916;-74
2023/05/17 02:11:48;;;;;;;;;;;;;;;7.92;100.00;102425.78;5056491;28;19912;-74
2023/05/17 02:14:13;;;;;;;;;;;;;;;7.89;100.00;102425.09;5056040;28;19908;-74
2023/05/17 02:16:39;;;;;;;;;;;;;;;7.87;100.00;102421.66;5055207;28;19909;-74
2023/05/17 02:19:04;;;;;;;;;;;;;;;7.86;100.00;102425.28;5057777;28;19978;-73
2023/05/17 02:21:30;;;;;;;;;;;;;;;7.85;100.00;102431.50;5054311;28;19917;-75
2023/05/17 02:23:55;;;;;;;;;;;;;;;7.85;100.00;102431.50;5055299;28;19923;-74
2023/05/17 02:26:20;;;;;;;;;;;;;;;7.85;100.00;102431.50;5054541;28;20412;-73
2023/05/17 02:28:45;;;;;;;;;;;;;;;7.82;100.00;102427.25;5055041;28;19917;-74
2023/05/17 02:31:10;;;;;;;;;;;;;;;7.82;100.00;102418.41;5056202;28;19952;-75
2023/05/17 02:33:36;;;;;;;;;;;;;;;7.83;100.00;102420.13;5054877;28;19920;-74
2023/05/17 02:36:01;;;;;;;;;;;;;;;7.81;100.00;102425.50;5060564;28;19912;-75
2023/05/17 02:38:26;;;;;;;;;;;;;;;7.80;100.00;102429.13;5054872;28;19908;-74
2023/05/17 02:40:51;;;;;;;;;;;;;;;7.81;100.00;102430.81;5057955;28;20008;-74
2023/05/17 02:43:17;;;;;;;;;;;;;;;7.81;100.00;102427.31;5058378;28;19912;-75
2023/05/17 02:45:42;;;;;;;;;;;;;;;7.80;100.00;102431.78;5055423;28;19917;-74
2023/05/17 02:48:07;;;;;;;;;;;;;;;7.80;100.00;102439.75;5056261;28;19908;-74
2023/05/17 02:50:32;;;;;;;;;;;;;;;7.80;100.00;102444.19;5056020;28;20421;-75
2023/05/17 02:52:58;;;;;;;;;;;;;;;7.79;100.00;102446.00;5055418;28;19912;-74
2023/05/17 02:55:23;;;;;;;;;;;;;;;7.79;100.00;102448.66;5054619;28;19924;-74
2023/05/17 02:57:48;;;;;;;;;;;;;;;7.80;100.00;102447.72;5055649;28;20293;-75
2023/05/17 03:00:15;;;;;;;;;;;;;;;7.82;100.00;102451.16;5054949;28;20386;-74
2023/05/17 03:02:40;;;;;;;;;;;;;;;7.84;100.00;102451.91;5054245;28;19913;-74
2023/05/17 03:05:07;;;;;;;;;;;;;;;7.89;100.00;102452.53;5067051;28;19916;-74
2023/05/17 03:07:32;;;;;;;;;;;;;;;7.93;100.00;102451.41;5054818;28;19909;-75
2023/05/17 03:09:57;;;;;;;;;;;;;;;7.98;100.00;102459.13;5055524;28;20294;-75
2023/05/17 03:12:22;;;;;;;;;;;;;;;8.02;100.00;102463.31;5055757;28;19924;-75
2023/05/17 03:14:47;;;;;;;;;;;;;;;8.06;100.00;102456.88;5056532;28;20011;-75
2023/05/17 03:17:12;;;;;;;;;;;;;;;8.10;100.00;102454.94;5053962;28;19920;-75
2023/05/17 03:19:38;;;;;;;;;;;;;;;8.15;100.00;102466.13;5058153;28;19909;-75
2023/05/17 03:22:03;;;;;;;;;;;;;;;8.19;100.00;102458.84;5054311;28;20115;-75
2023/05/17 03:24:28;;;;;;;;;;;;;;;8.23;100.00;102463.03;5054337;28;19916;-75
2023/05/17 03:26:53;;;;;;;;;;;;;;;8.27;100.00;102469.91;5053208;28;19924;-75
2023/05/17 03:29:18;;;;;;;;;;;;;;;8.30;100.00;102464.41;5059315;28;19913;-75
2023/05/17 03:31:44;;;;;;;;;;;;;;;8.34;100.00;102468.59;5053263;28;20309;-75
2023/05/17 03:34:09;;;;;;;;;;;;;;;8.38;100.00;102474.59;5064138;28;19915;-75
2023/05/17 03:36:34;;;;;;;;;;;;;;;8.41;100.00;102480.59;5052215;28;19917;-75
2023/05/17 03:38:59;;;;;;;;;;;;;;;8.43;100.00;102472.56;5053941;28;19940;-75
2023/05/17 03:41:25;;;;;;;;;;;;;;;8.46;100.00;102475.06;5054637;28;19922;-75
2023/05/17 03:43:50;;;;;;;;;;;;;;;8.48;100.00;102481.97;5059238;28;19917;-75
2023/05/17 03:46:15;;;;;;;;;;;;;;;8.52;100.00;102474.72;5055893;28;20393;-75
2023/05/17 03:48:40;;;;;;;;;;;;;;;8.55;100.00;102477.16;5062188;28;19916;-75
2023/05/17 03:51:06;;;;;;;;;;;;;;;8.58;100.00;102470.81;5054307;28;19918;-75
2023/05/17 03:53:31;;;;;;;;;;;;;;;8.61;100.00;102476.81;5052761;28;19913;-75
2023/05/17 03:55:56;;;;;;;;;;;;;;;8.64;100.00;102475.78;5056955;28;19916;-75
2023/05/17 03:58:21;;;;;;;;;;;;;;;8.68;100.00;102480.00;5053749;28;20029;-74
2023/05/17 04:00:46;;;;;;;;;;;;;;;8.70;100.00;102486.06;5058629;28;20352;-75
2023/05/17 04:03:12;;;;;;;;;;;;;;;8.73;100.00;102493.00;5053008;28;19916;-74
2023/05/17 04:05:38;;;;;;;;;;;;;;;8.76;100.00;102490.16;5051854;28;19916;-72
2023/05/17 04:08:03;;;;;;;;;;;;;;;8.78;100.00;102488.25;5053238;28;19943;-71
2023/05/17 04:10:29;;;;;;;;;;;;;;;8.80;100.00;102484.59;5052708;28;19948;-71
2023/05/17 04:12:54;;;;;;;;;;;;;;;8.82;100.00;102487.16;5052315;28;20007;-72
2023/05/17 04:15:19;;;;;;;;;;;;;;;8.83;100.00;102492.38;5059871;28;20334;-71
2023/05/17 04:17:45;;;;;;;;;;;;;;;8.85;100.00;102489.63;5053236;28;19908;-71
2023/05/17 04:20:10;;;;;;;;;;;;;;;8.86;100.00;102491.34;5052848;28;20297;-71
2023/05/17 04:22:35;;;;;;;;;;;;;;;8.86;100.00;102492.19;5052171;28;19919;-71
2023/05/17 04:25:00;;;;;;;;;;;;;;;8.88;100.00;102492.09;5053027;28;19916;-71
2023/05/17 04:27:26;;;;;;;;;;;;;;;8.87;100.00;102503.69;5052462;28;19913;-71
2023/05/17 04:29:51;;;;;;;;;;;;;;;8.87;100.00;102496.56;5057552;28;19916;-71
2023/05/17 04:32:16;;;;;;;;;;;;;;;8.87;100.00;102504.56;5052130;28;19916;-72
2023/05/17 04:34:42;;;;;;;;;;;;;;;8.88;100.00;102513.38;5052611;28;19995;-71
2023/05/17 04:37:07;;;;;;;;;;;;;;;8.86;100.00;102513.47;5053310;28;19954;-71
2023/05/17 04:39:32;;;;;;;;;;;;;;;8.87;100.00;102517.88;5052784;28;19963;-71
2023/05/17 04:41:57;;;;;;;;;;;;;;;8.88;100.00;102524.88;5056986;28;20408;-71
2023/05/17 04:44:23;;;;;;;;;;;;;;;8.88;100.00;102524.88;5055049;28;19959;-71
2023/05/17 04:46:48;;;;;;;;;;;;;;;8.89;100.00;102531.09;5053302;28;19912;-71
2023/05/17 04:49:13;;;;;;;;;;;;;;;8.90;100.00;102527.47;5051193;28;19928;-71
2023/05/17 04:51:39;;;;;;;;;;;;;;;8.92;100.00;102540.69;5051535;28;19915;-71
2023/05/17 04:54:07;;;;;;;;;;;;;;;8.93;100.00;102540.59;5050735;28;19920;-71
2023/05/17 04:56:33;;;;;;;;;;;;;;;8.96;100.00;102536.88;5054118;28;19916;-71
2023/05/17 04:58:58;;;;;;;;;;;;;;;8.97;100.00;102536.78;5054728;28;19909;-71
2023/05/17 05:01:23;;;;;;;;;;;;;;;9.01;100.00;102553.44;5052210;28;19954;-71
2023/05/17 05:03:48;;;;;;;;;;;;;;;9.02;100.00;102549.84;5051068;28;19919;-71
2023/05/17 05:06:15;;;;;;;;;;;;;;;9.04;100.00;102548.78;5050812;28;20965;-71
2023/05/17 05:08:40;;;;;;;;;;;;;;;9.07;100.00;102550.41;5051109;28;19919;-71
2023/05/17 05:11:05;;;;;;;;;;;;;;;9.09;100.00;102554.69;5054004;28;19908;-71
2023/05/17 05:13:31;;;;;;;;;;;;;;;9.12;100.00;102555.50;5054262;28;20401;-71
2023/05/17 05:15:56;;;;;;;;;;;;;;;9.16;100.00;102559.66;5057606;28;19912;-71
2023/05/17 05:18:21;;;;;;;;;;;;;;;9.18;100.00;102563.09;5055632;28;20314;-71
2023/05/17 05:20:47;;;;;;;;;;;;;;;9.22;100.00;102567.28;5055601;28;20386;-71
2023/05/17 05:23:12;;;;;;;;;;;;;;;9.26;100.00;102572.34;5054984;28;19971;-71
2023/05/17 05:25:38;;;;;;;;;;;;;;;9.32;100.00;102565.78;5056323;28;19913;-71
2023/05/17 05:28:03;;;;;;;;;;;;;;;9.38;100.00;102575.19;5054834;28;19959;-72
2023/05/17 05:30:28;;;;;;;;;;;;;;;9.41;100.00;102573.25;5059185;28;19912;-71
2023/05/17 05:32:53;;;;;;;;;;;;;;;9.47;100.00;102577.34;5057583;28;20373;-71
2023/05/17 05:35:19;;;;;;;;;;;;;;;9.51;100.00;102578.84;5056605;28;19966;-71
2023/05/17 05:37:44;;;;;;;;;;;;;;;9.58;100.00;102582.84;5057418;28;19916;-71
2023/05/17 05:40:10;;;;;;;;;;;;;;;9.62;100.00;102581.72;5055807;28;20496;-71
2023/05/17 05:42:35;;;;;;;;;;;;;;;9.67;100.00;102583.25;5057860;28;19913;-71
2023/05/17 05:45:00;;;;;;;;;;;;;;;9.75;100.00;102588.97;5058708;28;19928;-72
2023/05/17 05:47:25;;;;;;;;;;;;;;;9.81;100.00;102584.09;5058644;28;20324;-71
2023/05/17 05:49:51;;;;;;;;;;;;;;;9.90;100.00;102589.81;5065335;28;19908;-71
2023/05/17 05:52:16;;;;;;;;;;;;;;;9.95;100.00;102588.56;5070312;28;20468;-72
2023/05/17 05:54:41;;;;;;;;;;;;;;;10.02;100.00;102597.91;5062262;28;19970;-71
2023/05/17 05:57:06;;;;;;;;;;;;;;;10.12;100.00;102597.34;5067459;28;19912;-71
2023/05/17 05:59:32;;;;;;;;;;;;;;;10.23;100.00;102597.50;5063211;28;20028;-71
2023/05/17 06:01:57;;;;;;;;;;;;;;;10.40;100.00;102609.81;5064232;28;20402;-69
2023/05/17 06:04:23;;;;;;;;;;;;;;;10.53;100.00;102608.03;5063757;28;20388;-71
2023/05/17 06:06:49;;;;;;;;;;;;;;;10.66;100.00;102615.25;5065159;28;20007;-71
2023/05/17 06:09:14;;;;;;;;;;;;;;;10.74;100.00;102613.81;5065134;28;20024;-71
2023/05/17 06:11:39;;;;;;;;;;;;;;;10.78;100.00;102611.78;5062239;28;20094;-72
2023/05/17 06:14:04;;;;;;;;;;;;;;;10.85;100.00;102618.47;5063641;28;20362;-72
2023/05/17 06:16:30;;;;;;;;;;;;;;;10.96;100.00;102623.94;5059394;28;19909;-72
2023/05/17 06:18:55;;;;;;;;;;;;;;;11.11;100.00;102621.19;5062272;28;19919;-70
2023/05/17 06:21:20;;;;;;;;;;;;;;;11.22;100.00;102628.50;5060640;28;19955;-70
2023/05/17 06:23:45;;;;;;;;;;;;;;;11.37;100.00;102629.28;5061162;28;20377;-70
2023/05/17 06:26:10;;;;;;;;;;;;;;;11.56;100.00;102635.09;5065556;28;19915;-71
2023/05/17 06:28:36;;;;;;;;;;;;;;;11.73;100.00;102640.13;5060566;28;19920;-71
2023/05/17 06:31:01;;;;;;;;;;;;;;;11.87;100.00;102631.16;5064532;28;19920;-70
2023/05/17 06:33:27;;;;;;;;;;;;;;;12.06;100.00;102633.41;5063667;28;20061;-70
2023/05/17 06:35:52;;;;;;;;;;;;;;;12.23;100.00;102639.38;5063088;28;19955;-70
2023/05/17 06:38:17;;;;;;;;;;;;;;;12.33;100.00;102639.59;5063390;28;19916;-73
2023/05/17 06:40:42;;;;;;;;;;;;;;;12.53;100.00;102635.47;5061388;28;20006;-70
2023/05/17 06:43:07;;;;;;;;;;;;;;;12.79;100.00;102628.19;5065473;28;19916;-70
2023/05/17 06:45:33;;;;;;;;;;;;;;;13.08;100.00;102639.44;5058543;28;19916;-70
2023/05/17 06:47:58;;;;;;;;;;;;;;;13.35;100.00;102639.19;5063950;28;19912;-70
2023/05/17 06:50:25;;;;;;;;;;;;;;;13.58;100.00;102637.41;5065153;28;20323;-70
2023/05/17 06:52:50;;;;;;;;;;;;;;;13.69;100.00;102641.97;5061683;28;19958;-70
2023/05/17 06:55:16;;;;;;;;;;;;;;;13.82;100.00;102641.84;5062731;28;19916;-71
2023/05/17 06:57:41;;;;;;;;;;;;;;;13.84;100.00;102633.69;5062682;28;19912;-70
2023/05/17 07:00:09;;;;;;;;;;;;;;;13.79;100.00;102642.09;5062259;28;19918;-71
2023/05/17 07:02:34;;;;;;;;;;;;;;;13.87;100.00;102644.19;5061141;28;20354;-70
2023/05/17 07:05:00;;;;;;;;;;;;;;;13.97;100.00;102643.34;5063706;28;19920;-70
2023/05/17 07:07:25;;;;;;;;;;;;;;;14.23;100.00;102644.91;5063059;28;20355;-70
2023/05/17 07:09:50;;;;;;;;;;;;;;;14.54;100.00;102640.63;5061877;28;20338;-71
2023/05/17 07:12:15;;;;;;;;;;;;;;;14.87;100.00;102649.63;5063289;28;19920;-71
2023/05/17 07:14:40;;;;;;;;;;;;;;;15.18;100.00;102652.44;5060062;28;19917;-71
2023/05/17 07:17:06;;;;;;;;;;;;;;;15.52;100.00;102647.75;5059760;28;19919;-71
2023/05/17 07:19:31;;;;;;;;;;;;;;;15.83;100.00;102651.38;5062575;28;19908;-70
2023/05/17 07:21:56;;;;;;;;;;;;;;;16.11;100.00;102650.78;5059233;28;19978;-71
2023/05/17 07:24:21;;;;;;;;;;;;;;;16.24;100.00;102654.13;5063245;28;19916;-70
2023/05/17 07:26:46;;;;;;;;;;;;;;;16.48;100.00;102663.69;5060709;28;20450;-70
2023/05/17 07:29:12;;;;;;;;;;;;;;;16.77;100.00;102658.38;5062602;28;19929;-70
2023/05/17 07:31:37;;;;;;;;;;;;;;;17.06;100.00;102666.53;5059285;28;19920;-71
2023/05/17 07:34:02;;;;;;;;;;;;;;;17.29;100.00;102668.94;5064108;28;20005;-71
2023/05/17 07:36:29;;;;;;;;;;;;;;;17.51;100.00;102659.69;5061962;28;19908;-70
2023/05/17 07:38:54;;;;;;;;;;;;;;;17.64;100.00;102665.63;5061750;28;20335;-71
2023/05/17 07:41:22;;;;;;;;;;;;;;;17.62;100.00;102669.47;5062601;28;19912;-72
2023/05/17 07:43:47;;;;;;;;;;;;;;;17.52;100.00;102664.94;5060761;28;20370;-72
2023/05/17 07:46:12;;;;;;;;;;;;;;;17.38;100.00;102668.09;5058827;28;19917;-72
2023/05/17 07:48:37;;;;;;;;;;;;;;;17.13;100.00;102670.34;5060788;28;20362;-71
2023/05/17 07:51:02;;;;;;;;;;;;;;;16.69;100.00;102677.06;5062728;28;20437;-71
2023/05/17 07:53:28;;;;;;;;;;;;;;;16.38;100.00;102667.19;5062067;28;19920;-71
2023/05/17 07:55:53;;;;;;;;;;;;;;;15.91;100.00;102669.53;5055711;28;20377;-72
2023/05/17 07:58:18;;;;;;;;;;;;;;;15.64;100.00;102675.44;5061729;28;19919;-72
2023/05/17 08:00:43;;;;;;;;;;;;;;;15.70;100.00;102681.13;5062562;28;19959;-71
2023/05/17 08:03:08;;;;;;;;;;;;;;;15.85;100.00;102680.84;5062116;28;19917;-70
2023/05/17 08:05:34;;;;;;;;;;;;;;;16.20;100.00;102675.06;5062618;28;20394;-73
2023/05/17 08:07:59;;;;;;;;;;;;;;;16.60;100.00;102673.34;5065710;28;19990;-70
2023/05/17 08:10:25;;;;;;;;;;;;;;;16.86;100.00;102672.88;5060669;28;19909;-71
2023/05/17 08:12:55;;;;;;;;;;;;;;;17.19;100.00;102677.88;5062016;28;19921;-72
2023/05/17 08:15:20;;;;;;;;;;;;;;;17.53;100.00;102680.16;5061213;28;19954;-71
2023/05/17 08:17:45;;;;;;;;;;;;;;;17.89;100.00;102682.22;5062287;28;19912;-71
2023/05/17 08:20:11;;;;;;;;;;;;;;;18.25;100.00;102679.69;5063637;28;19916;-71
2023/05/17 08:22:36;;;;;;;;;;;;;;;18.56;100.00;102677.53;5061136;28;19952;-71
2023/05/17 08:25:02;;;;;;;;;;;;;;;18.95;100.00;102682.75;5062294;28;20395;-71
2023/05/17 08:27:29;;;;;;;;;;;;;;;19.29;100.00;102692.88;5057646;28;20300;-70
2023/05/17 08:29:56;;;;;;;;;;;;;;;19.59;100.00;102688.91;5062988;28;20273;-73
2023/05/17 08:32:22;;;;;;;;;;;;;;;19.75;100.00;102688.19;5060488;28;20361;-71
2023/05/17 08:34:47;;;;;;;;;;;;;;;19.77;100.00;102691.59;5059661;28;19931;-71
2023/05/17 08:37:13;;;;;;;;;;;;;;;19.73;100.00;102692.91;5061272;28;20362;-71
2023/05/17 08:39:38;;;;;;;;;;;;;;;19.86;100.00;102688.94;5062267;28;19980;-72
2023/05/17 08:42:06;;;;;;;;;;;;;;;19.99;100.00;102687.50;5064888;28;19912;-71
2023/05/17 08:44:32;;;;;;;;;;;;;;;19.99;96.53;102687.50;5060018;28;19951;-72
2023/05/17 08:46:59;;;;;;;;;;;;;;;19.99;97.15;102701.06;5061360;28;19916;-72
2023/05/17 08:49:26;;;;;;;;;;;;;;;20.13;94.03;102693.34;5062597;28;19912;-72
2023/05/17 08:51:56;;;;;;;;;;;;;;;20.31;89.57;102698.69;5057094;28;20377;-71
2023/05/17 08:54:21;;;;;;;;;;;;;;;20.36;88.28;102685.50;5057100;28;19916;-71
2023/05/17 08:56:51;;;;;;;;;;;;;;;20.42;96.50;102692.97;5061070;28;20009;-71
2023/05/17 08:59:16;;;;;;;;;;;;;;;20.60;96.95;102690.19;5062580;28;20301;-71
2023/05/17 09:01:42;;;;;;;;;;;;;;;20.70;89.27;102700.91;5059005;28;19909;-71
2023/05/17 09:04:08;;;;;;;;;;;;;;;20.76;93.05;102695.69;5057764;28;19953;-71
2023/05/17 09:06:34;;;;;;;;;;;;;;;21.03;90.68;102693.69;5059225;28;20230;-72
2023/05/17 09:09:00;;;;;;;;;;;;;;;21.27;88.78;102694.75;5062402;28;19917;-71
2023/05/17 09:11:32;;;;;;;;;;;;;;;21.50;83.99;102695.78;5058595;28;19916;-72
2023/05/17 09:13:58;;;;;;;;;;;;;;;21.56;81.08;102688.84;5059898;28;19916;-71
2023/05/17 09:16:23;;;;;;;;;;;;;;;21.63;84.42;102692.56;5055265;28;19912;-71
2023/05/17 09:18:53;;;;;;;;;;;;;;;22.02;89.46;102689.13;5058421;28;19915;-71
2023/05/17 09:21:19;;;;;;;;;;;;;;;22.15;79.91;102691.28;5063150;28;20144;-72
2023/05/17 09:23:45;;;;;;;;;;;;;;;22.20;79.65;102683.44;5061375;28;19948;-70
2023/05/17 09:26:12;;;;;;;;;;;;;;;22.24;79.47;102690.22;5061656;28;19908;-70
2023/05/17 09:28:38;;;;;;;;;;;;;;;22.39;78.47;102692.25;5058297;28;20356;-71
2023/05/17 09:31:12;;;;;;;;;;;;;;;22.59;78.07;102688.06;5060980;28;19908;-70
2023/05/17 09:33:48;;;;;;;;;;;;;;;22.82;78.89;102696.25;5057843;28;19924;-70
2023/05/17 09:36:18;;;;;;;;;;;;;;;22.92;75.08;102693.31;5057733;28;19913;-71
2023/05/17 09:38:50;;;;;;;;;;;;;;;23.11;77.27;102693.94;5057977;28;19920;-71
2023/05/17 09:41:16;;;;;;;;;;;;;;;23.02;75.62;102688.50;5058649;28;20390;-71
2023/05/17 09:43:41;;;;;;;;;;;;;;;22.80;76.12;102700.19;5058063;28;19915;-71
2023/05/17 09:46:06;;;;;;;;;;;;;;;22.93;74.35;102681.44;5058118;28;19919;-71
2023/05/17 09:48:31;;;;;;;;;;;;;;;23.21;74.14;102680.91;5059040;28;20007;-71
2023/05/17 09:50:56;;;;;;;;;;;;;;;23.48;71.90;102684.94;5060225;28;19919;-71
2023/05/17 09:53:25;;;;;;;;;;;;;;;23.75;69.73;102682.63;5066083;28;19946;-71
2023/05/17 09:55:58;;;;;;;;;;;;;;;23.62;65.72;102683.28;5059154;28;19916;-71
2023/05/17 09:58:24;;;;;;;;;;;;;;;23.17;68.80;102685.84;5061220;28;20014;-71
2023/05/17 10:00:52;;;;;;;;;;;;;;;23.06;70.62;102691.75;5060684;28;19975;-71
2023/05/17 10:03:17;;;;;;;;;;;;;;;23.35;68.78;102696.47;5064144;28;19918;-71
2023/05/17 10:05:43;;;;;;;;;;;;;;;23.35;68.85;102685.56;5061312;28;20292;-71
2023/05/17 10:08:09;;;;;;;;;;;;;;;23.44;66.75;102691.78;5069446;28;19912;-72
2023/05/17 10:10:35;;;;;;;;;;;;;;;23.63;65.22;102684.13;5063978;28;19924;-72
2023/05/17 10:13:04;;;;;;;;;;;;;;;23.76;62.53;102689.78;5063348;28;19917;-72
2023/05/17 10:15:29;;;;;;;;;;;;;;;23.82;61.52;102694.50;5060764;28;20262;-72
2023/05/17 10:17:55;;;;;;;;;;;;;;;23.82;65.72;102689.06;5062491;28;19932;-73
2023/05/17 10:20:20;;;;;;;;;;;;;;;23.84;61.76;102694.31;5061895;28;19916;-73
2023/05/17 10:22:47;;;;;;;;;;;;;;;24.05;63.87;102688.13;5060955;28;19995;-73
2023/05/17 10:25:12;;;;;;;;;;;;;;;24.40;63.28;102689.25;5064398;28;19908;-71
2023/05/17 10:27:37;;;;;;;;;;;;;;;24.67;63.06;102690.47;5061102;28;19927;-72
2023/05/17 10:30:03;;;;;;;;;;;;;;;24.97;61.46;102684.91;5063732;28;19951;-72
2023/05/17 10:32:28;;;;;;;;;;;;;;;25.15;61.10;102689.91;5061551;28;20460;-71
2023/05/17 10:34:54;;;;;;;;;;;;;;;25.24;54.83;102677.81;5063828;28;19908;-72
2023/05/17 10:37:20;;;;;;;;;;;;;;;25.10;59.43;102676.88;5060855;28;20374;-72
2023/05/17 10:39:45;;;;;;;;;;;;;;;25.29;58.37;102680.00;5060056;28;19920;-72
2023/05/17 10:42:12;;;;;;;;;;;;;;;25.35;56.88;102681.94;5063574;28;19908;-71
2023/05/17 10:44:37;;;;;;;;;;;;;;;25.19;59.18;102672.13;5059784;28;19916;-72
2023/05/17 10:47:03;;;;;;;;;;;;;;;24.89;57.82;102671.38;5060167;28;19921;-71
2023/05/17 10:49:30;;;;;;;;;;;;;;;25.02;58.16;102667.97;5065346;28;19915;-71
2023/05/17 10:51:56;;;;;;;;;;;;;;;24.79;55.35;102671.72;5061442;28;20024;-72
2023/05/17 10:54:32;;;;;;;;;;;;;;;24.83;53.08;102677.63;5058818;28;20385;-71
2023/05/17 10:57:00;;;;;;;;;;;;;;;25.13;54.58;102663.84;5064281;28;19912;-71
2023/05/17 10:59:28;;;;;;;;;;;;;;;25.28;51.90;102660.03;5061384;28;20373;-72
2023/05/17 11:02:06;;;;;;;;;;;;;;;25.35;50.78;102661.97;5060706;28;20388;-72
2023/05/17 11:04:38;;;;;;;;;;;;;;;25.22;47.71;102668.13;5059366;28;19908;-72
2023/05/17 11:07:16;;;;;;;;;;;;;;;25.12;47.75;102656.69;5061817;28;19908;-72
2023/05/17 11:09:54;;;;;;;;;;;;;;;25.21;49.01;102666.44;5058769;28;19960;-71
2023/05/17 11:12:27;;;;;;;;;;;;;;;25.35;48.11;102670.16;5058729;28;19948;-72
2023/05/17 11:14:53;;;;;;;;;;;;;;;25.27;45.95;102662.97;5059684;28;20324;-71
2023/05/17 11:17:20;;;;;;;;;;;;;;;25.16;47.96;102660.72;5058631;28;19912;-71
2023/05/17 11:19:51;;;;;;;;;;;;;;;25.27;46.89;102655.59;5058156;28;19924;-71
2023/05/17 11:22:17;;;;;;;;;;;;;;;25.48;49.03;102662.94;5061873;28;19948;-71
2023/05/17 11:24:43;;;;;;;;;;;;;;;25.73;46.10;102661.63;5059432;28;19971;-72
2023/05/17 11:27:08;;;;;;;;;;;;;;;25.82;44.43;102654.97;5057492;28;20351;-72
2023/05/17 11:29:33;;;;;;;;;;;;;;;25.88;45.33;102659.63;5055524;28;20003;-71
2023/05/17 11:32:04;;;;;;;;;;;;;;;25.71;43.97;102656.38;5061055;28;20422;-71
2023/05/17 11:34:31;;;;;;;;;;;;;;;25.52;47.39;102657.06;5059486;28;20542;-71
2023/05/17 11:36:57;;;;;;;;;;;;;;;25.74;46.99;102655.13;5058524;28;19917;-71
2023/05/17 11:39:22;;;;;;;;;;;;;;;25.90;49.88;102651.25;5060650;28;20335;-71
2023/05/17 11:41:49;;;;;;;;;;;;;;;25.58;48.13;102653.53;5055378;28;19912;-72
2023/05/17 11:44:27;;;;;;;;;;;;;;;25.62;49.33;102646.63;5060517;28;19923;-72
2023/05/17 11:47:03;;;;;;;;;;;;;;;25.85;44.66;102647.19;5057230;28;19954;-71
2023/05/17 11:49:29;;;;;;;;;;;;;;;26.06;46.64;102645.47;5064285;28;19909;-72
2023/05/17 11:51:55;;;;;;;;;;;;;;;26.23;44.22;102643.25;5059853;28;19962;-72
2023/05/17 11:54:20;;;;;;;;;;;;;;;26.39;45.70;102644.78;5060779;28;19921;-72
2023/05/17 11:56:46;;;;;;;;;;;;;;;26.63;45.46;102642.56;5062490;28;20336;-72
2023/05/17 11:59:17;;;;;;;;;;;;;;;26.81;46.21;102650.19;5068126;28;20000;-72
2023/05/17 12:01:44;;;;;;;;;;;;;;;26.98;44.54;102640.50;5057762;28;19962;-72
2023/05/17 12:04:09;;;;;;;;;;;;;;;27.02;43.39;102646.44;5054882;28;19987;-72
2023/05/17 12:06:35;;;;;;;;;;;;;;;26.68;40.63;102654.56;5058035;28;19940;-72
2023/05/17 12:09:02;;;;;;;;;;;;;;;26.38;39.23;102638.44;5062684;28;19916;-72
2023/05/17 12:11:27;;;;;;;;;;;;;;;26.15;41.59;102640.66;5060247;28;19912;-71
2023/05/17 12:13:52;;;;;;;;;;;;;;;25.88;40.75;102647.84;5063982;28;20050;-72
2023/05/17 12:16:20;;;;;;;;;;;;;;;25.77;40.22;102650.13;5058447;28;20390;-72
2023/05/17 12:18:49;;;;;;;;;;;;;;;25.78;41.12;102650.94;5059697;28;19917;-72
2023/05/17 12:21:16;;;;;;;;;;;;;;;25.92;42.03;102639.03;5060710;28;19908;-72
2023/05/17 12:23:42;;;;;;;;;;;;;;;26.08;41.57;102628.84;5054030;28;19939;-72
2023/05/17 12:26:09;;;;;;;;;;;;;;;26.11;38.43;102642.13;5060740;28;19953;-72
2023/05/17 12:28:36;;;;;;;;;;;;;;;25.99;39.56;102622.72;5061320;28;19913;-72
2023/05/17 12:31:02;;;;;;;;;;;;;;;25.96;39.98;102625.84;5059692;28;19916;-72